Time;durP1;ratioP1;P1;durP2;ratioP2;P2;SDS_P1;SDS_P2;PMS_P1;PMS_P2;Temp;Humidity;BMP_temperature;BMP_pressure;BME280_temperature;BME280_humidity;BME280_pressure;Samples;Min_cycle;Max_cycle;Signal;HPM_P1;HPM_P2
2021/07/20 00:00:14;;;;;;;14.03;9.40;;;15.20;99.90;;;;;;4917810;29;20293;-74
2021/07/20 00:02:41;;;;;;;16.90;10.57;;;15.20;99.90;;;;;;4918155;29;20566;-74
2021/07/20 00:05:09;;;;;;;15.27;10.53;;;15.30;99.90;;;;;;4933936;29;20170;-74
2021/07/20 00:07:35;;;;;;;15.70;9.73;;;15.30;99.90;;;;;;4933914;29;20550;-74
2021/07/20 00:10:00;;;;;;;13.27;10.07;;;15.30;99.90;;;;;;4917785;29;20199;-74
2021/07/20 00:12:26;;;;;;;13.53;9.97;;;15.20;99.90;;;;;;4935077;29;20178;-74
2021/07/20 00:14:52;;;;;;;15.87;10.17;;;15.20;99.90;;;;;;4918119;29;20555;-74
2021/07/20 00:17:21;;;;;;;17.23;10.47;;;15.10;99.90;;;;;;4935094;29;20206;-74
2021/07/20 00:19:47;;;;;;;16.13;10.70;;;15.10;99.90;;;;;;4934831;29;20676;-74
2021/07/20 00:22:13;;;;;;;16.27;10.67;;;15.10;99.90;;;;;;4935083;29;20182;-74
2021/07/20 00:24:38;;;;;;;15.20;10.77;;;15.30;99.90;;;;;;4933714;29;20174;-74
2021/07/20 00:27:04;;;;;;;14.90;10.07;;;15.20;99.90;;;;;;4933777;29;20188;-74
2021/07/20 00:29:30;;;;;;;14.40;10.27;;;15.20;99.90;;;;;;4933292;29;20236;-74
2021/07/20 00:31:55;;;;;;;17.67;10.40;;;15.20;99.90;;;;;;4933734;29;20205;-74
2021/07/20 00:34:21;;;;;;;14.90;10.50;;;15.30;99.90;;;;;;4934970;29;20183;-74
2021/07/20 00:36:46;;;;;;;14.63;9.73;;;15.10;99.90;;;;;;4933748;29;20596;-74
2021/07/20 00:39:12;;;;;;;15.37;9.83;;;15.00;99.90;;;;;;4933338;29;20741;-75
2021/07/20 00:41:37;;;;;;;15.33;10.60;;;15.20;99.90;;;;;;4917940;29;20265;-74
2021/07/20 00:44:03;;;;;;;15.67;10.60;;;15.20;99.90;;;;;;4935004;29;20258;-75
2021/07/20 00:46:29;;;;;;;17.27;10.80;;;15.10;99.90;;;;;;4935213;29;20186;-74
2021/07/20 00:48:54;;;;;;;18.70;10.93;;;15.00;99.90;;;;;;4934768;29;20230;-74
2021/07/20 00:51:20;;;;;;;16.57;10.70;;;15.20;99.90;;;;;;4933686;29;20179;-74
2021/07/20 00:53:46;;;;;;;16.20;11.07;;;15.10;99.90;;;;;;4933429;29;20174;-74
2021/07/20 00:56:12;;;;;;;14.77;9.93;;;15.20;99.90;;;;;;4933541;29;20572;-74
2021/07/20 00:58:37;;;;;;;16.57;11.00;;;15.10;99.90;;;;;;4901440;29;20217;-74
2021/07/20 01:01:03;;;;;;;17.67;11.43;;;15.10;99.90;;;;;;4933513;29;20175;-74
2021/07/20 01:03:31;;;;;;;16.33;10.43;;;15.20;99.90;;;;;;4933390;29;20178;-74
2021/07/20 01:05:56;;;;;;;19.77;11.07;;;15.20;99.90;;;;;;4936666;29;20261;-74
2021/07/20 01:08:22;;;;;;;19.17;10.37;;;15.10;99.90;;;;;;4920835;29;20261;-74
2021/07/20 01:10:47;;;;;;;16.77;11.30;;;15.10;99.90;;;;;;4936952;29;20193;-74
2021/07/20 01:13:13;;;;;;;18.60;11.10;;;15.10;99.90;;;;;;4936890;29;20570;-74
2021/07/20 01:15:39;;;;;;;18.97;11.67;;;15.10;99.90;;;;;;4921021;29;20186;-74
2021/07/20 01:18:04;;;;;;;17.47;10.83;;;15.20;99.90;;;;;;4936917;29;20281;-74
2021/07/20 01:20:30;;;;;;;17.27;11.13;;;15.10;99.90;;;;;;4936630;29;20603;-74
2021/07/20 01:23:11;;;;;;;17.47;11.33;;;15.10;99.90;;;;;;4936531;29;20187;-74
2021/07/20 01:25:38;;;;;;;19.17;11.33;;;15.20;99.90;;;;;;4937918;29;20245;-74
2021/07/20 01:28:05;;;;;;;17.60;11.20;;;15.10;99.90;;;;;;4920840;29;20190;-74
2021/07/20 01:30:31;;;;;;;17.63;11.67;;;15.10;99.90;;;;;;4936197;29;20209;-74
2021/07/20 01:32:57;;;;;;;17.77;11.80;;;15.10;99.90;;;;;;4936741;29;20210;-74
2021/07/20 01:35:23;;;;;;;16.43;10.50;;;15.10;99.90;;;;;;4936604;29;20225;-74
2021/07/20 01:37:48;;;;;;;20.17;11.27;;;15.00;99.90;;;;;;4920690;29;20325;-74
2021/07/20 01:40:14;;;;;;;14.77;10.43;;;15.00;99.90;;;;;;4936240;29;20203;-74
2021/07/20 01:42:43;;;;;;;19.80;11.77;;;14.90;99.90;;;;;;4936351;29;20456;-74
2021/07/20 01:45:10;;;;;;;17.27;10.77;;;15.00;99.90;;;;;;4936479;29;20186;-74
2021/07/20 01:47:36;;;;;;;17.63;10.97;;;14.80;99.90;;;;;;4920863;29;20272;-74
2021/07/20 01:50:01;;;;;;;19.67;11.60;;;14.90;99.90;;;;;;4935959;29;20282;-74
2021/07/20 01:52:27;;;;;;;17.13;10.97;;;14.80;99.90;;;;;;4920232;29;20638;-74
2021/07/20 01:54:52;;;;;;;19.70;10.73;;;14.80;99.90;;;;;;4936315;29;20237;-74
2021/07/20 01:57:18;;;;;;;16.13;11.00;;;14.70;99.90;;;;;;4936218;29;20285;-74
2021/07/20 01:59:44;;;;;;;18.87;11.47;;;14.80;99.90;;;;;;4935829;29;20232;-74
2021/07/20 02:02:26;;;;;;;16.30;10.37;;;14.80;99.90;;;;;;4936189;29;20193;-74
2021/07/20 02:10:06;;;;;;;18.73;11.47;;;14.60;99.90;;;;;;4936026;29;20245;-74
2021/07/20 02:12:38;;;;;;;18.30;11.47;;;14.60;99.90;;;;;;4935817;29;20221;-74
2021/07/20 02:15:04;;;;;;;18.67;11.33;;;14.60;99.90;;;;;;4935869;29;20175;-74
2021/07/20 02:17:32;;;;;;;17.37;11.30;;;14.70;99.90;;;;;;4934832;29;20218;-74
2021/07/20 02:20:09;;;;;;;18.50;11.47;;;14.70;99.90;;;;;;4935472;29;20276;-74
2021/07/20 02:22:35;;;;;;;15.17;10.10;;;14.60;99.90;;;;;;4935730;29;20261;-74
2021/07/20 02:25:01;;;;;;;15.10;10.73;;;14.60;99.90;;;;;;4935493;29;20229;-74
2021/07/20 02:27:26;;;;;;;16.10;10.63;;;14.60;99.90;;;;;;4935584;29;20174;-74
2021/07/20 02:29:54;;;;;;;18.20;11.33;;;14.60;99.90;;;;;;4919061;29;20221;-74
2021/07/20 02:32:21;;;;;;;15.10;10.47;;;14.70;99.90;;;;;;4935557;29;20546;-74
2021/07/20 02:34:46;;;;;;;16.67;10.40;;;14.60;99.90;;;;;;4935333;29;20258;-74
2021/07/20 02:37:12;;;;;;;17.93;10.93;;;14.50;99.90;;;;;;4935375;29;20292;-73
2021/07/20 02:39:37;;;;;;;17.97;10.70;;;14.60;99.90;;;;;;4935197;29;20269;-74
2021/07/20 02:42:03;;;;;;;16.83;11.00;;;14.50;99.90;;;;;;4934969;29;20182;-74
2021/07/20 02:44:28;;;;;;;15.63;10.83;;;14.50;99.90;;;;;;4935078;29;20178;-74
2021/07/20 02:46:54;;;;;;;18.63;11.07;;;14.40;99.90;;;;;;4919175;29;20186;-74
2021/07/20 02:49:20;;;;;;;17.40;11.17;;;14.40;99.90;;;;;;4934813;29;20195;-74
2021/07/20 02:51:46;;;;;;;16.63;10.90;;;14.30;99.90;;;;;;4946287;29;20213;-74
2021/07/20 02:54:12;;;;;;;17.77;11.07;;;14.30;99.90;;;;;;4954279;29;20177;-74
2021/07/20 02:56:38;;;;;;;19.27;11.70;;;14.30;99.90;;;;;;4953855;29;20509;-74
2021/07/20 02:59:05;;;;;;;17.37;10.67;;;14.30;99.90;;;;;;4937409;29;20697;-74
2021/07/20 03:01:32;;;;;;;17.40;11.60;;;14.20;99.90;;;;;;4935103;29;20200;-74
2021/07/20 03:03:58;;;;;;;16.63;10.53;;;14.30;99.90;;;;;;4938288;29;20174;-74
2021/07/20 03:06:24;;;;;;;17.73;10.57;;;14.20;99.90;;;;;;4937856;29;20672;-74
2021/07/20 03:08:52;;;;;;;18.23;11.23;;;14.20;99.90;;;;;;4937711;29;20197;-73
2021/07/20 03:11:17;;;;;;;15.43;10.83;;;14.30;99.90;;;;;;4938230;29;20177;-73
2021/07/20 03:13:46;;;;;;;20.67;11.27;;;14.30;99.90;;;;;;4938150;29;20272;-73
2021/07/20 03:16:11;;;;;;;16.77;11.23;;;14.40;99.90;;;;;;4922253;29;20212;-74
2021/07/20 03:18:38;;;;;;;20.57;11.17;;;14.40;99.90;;;;;;4937720;29;20669;-74
2021/07/20 03:21:03;;;;;;;19.53;11.53;;;14.30;99.90;;;;;;4937869;29;20744;-74
2021/07/20 03:23:29;;;;;;;17.13;11.43;;;14.20;99.90;;;;;;4953662;29;20264;-74
2021/07/20 03:25:58;;;;;;;17.80;10.93;;;14.30;99.90;;;;;;4937557;29;20212;-74
2021/07/20 03:28:23;;;;;;;19.27;11.17;;;14.40;99.90;;;;;;4921317;29;20184;-74
2021/07/20 03:30:49;;;;;;;16.03;10.73;;;14.40;99.90;;;;;;4937508;29;20185;-74
2021/07/20 03:33:15;;;;;;;17.27;11.27;;;14.30;99.90;;;;;;4937564;29;20188;-74
2021/07/20 03:35:41;;;;;;;17.50;10.60;;;14.40;99.90;;;;;;4937644;29;20232;-74
2021/07/20 03:38:07;;;;;;;18.53;11.13;;;14.40;99.90;;;;;;4937315;29;20209;-74
2021/07/20 03:40:33;;;;;;;16.10;11.33;;;14.40;99.90;;;;;;4921259;29;20205;-74
2021/07/20 03:42:58;;;;;;;16.37;10.67;;;14.50;99.90;;;;;;4937295;29;20269;-74
2021/07/20 03:45:24;;;;;;;15.47;10.10;;;14.40;99.90;;;;;;4937396;29;20177;-74
2021/07/20 03:47:49;;;;;;;18.83;11.53;;;14.40;99.90;;;;;;4921484;29;20186;-74
2021/07/20 03:50:16;;;;;;;16.57;10.57;;;14.50;99.90;;;;;;4936917;29;20224;-74
2021/07/20 03:52:42;;;;;;;19.90;10.77;;;14.50;99.90;;;;;;4937298;29;20645;-74
2021/07/20 03:55:08;;;;;;;20.07;10.93;;;14.50;99.90;;;;;;4936970;29;20663;-74
2021/07/20 03:57:34;;;;;;;17.17;11.50;;;14.40;99.90;;;;;;4937167;29;20209;-74
2021/07/20 04:00:01;;;;;;;17.53;11.07;;;14.40;99.90;;;;;;4937069;29;20200;-74
2021/07/20 04:02:28;;;;;;;15.77;11.13;;;14.40;99.90;;;;;;4934946;29;20528;-74
2021/07/20 04:04:54;;;;;;;17.73;11.30;;;14.40;99.90;;;;;;4937354;29;20169;-74
2021/07/20 04:07:19;;;;;;;15.83;10.57;;;14.40;99.90;;;;;;4934607;29;20228;-74
2021/07/20 04:09:45;;;;;;;16.57;10.37;;;14.50;99.90;;;;;;4934399;29;20202;-74
2021/07/20 04:12:13;;;;;;;18.63;10.00;;;14.50;99.90;;;;;;4928891;29;20185;-74
2021/07/20 04:14:39;;;;;;;16.80;10.37;;;14.60;99.90;;;;;;4926383;29;20186;-74
2021/07/20 04:17:04;;;;;;;16.10;10.73;;;14.50;99.90;;;;;;4937010;29;20206;-74
2021/07/20 04:19:30;;;;;;;20.50;11.03;;;14.60;99.90;;;;;;4936800;29;20677;-74
2021/07/20 04:21:55;;;;;;;17.03;10.40;;;14.60;99.90;;;;;;4937125;29;20685;-74
2021/07/20 04:24:25;;;;;;;20.73;11.00;;;14.60;99.90;;;;;;4936778;29;20548;-74
2021/07/20 04:26:53;;;;;;;18.23;10.60;;;14.70;99.90;;;;;;4937196;29;20273;-76
2021/07/20 04:29:19;;;;;;;16.10;10.60;;;14.60;99.90;;;;;;4921602;29;20213;-76
2021/07/20 04:31:45;;;;;;;17.70;10.60;;;14.60;99.90;;;;;;4953033;29;20174;-77
2021/07/20 04:34:11;;;;;;;17.17;10.77;;;14.70;99.90;;;;;;4921326;29;20182;-77
2021/07/20 04:36:38;;;;;;;16.07;10.40;;;14.60;99.90;;;;;;4921303;29;20181;-77
2021/07/20 04:39:03;;;;;;;20.70;11.20;;;14.60;99.90;;;;;;4921268;29;20212;-77
2021/07/20 04:41:29;;;;;;;17.20;10.83;;;14.70;99.90;;;;;;4924896;29;20185;-77
2021/07/20 04:43:54;;;;;;;17.03;11.23;;;14.70;99.90;;;;;;4940935;29;20550;-77
2021/07/20 04:46:20;;;;;;;18.87;11.10;;;14.70;99.90;;;;;;4940878;29;20660;-77
2021/07/20 04:48:46;;;;;;;18.80;11.20;;;14.80;99.90;;;;;;4940570;29;20204;-78
2021/07/20 04:51:11;;;;;;;18.57;10.97;;;14.80;99.90;;;;;;4924852;29;20189;-76
2021/07/20 04:53:38;;;;;;;16.00;10.50;;;14.80;99.90;;;;;;4940536;29;20188;-76
2021/07/20 04:56:04;;;;;;;18.13;10.47;;;14.80;99.90;;;;;;4958345;28;20213;-74
2021/07/20 04:58:30;;;;;;;15.90;9.70;;;14.80;99.90;;;;;;4930198;29;20205;-74
2021/07/20 05:01:09;;;;;;;17.93;10.90;;;14.80;99.90;;;;;;4960151;29;20185;-74
2021/07/20 05:03:37;;;;;;;17.43;10.47;;;14.90;99.90;;;;;;4961150;29;20177;-74
2021/07/20 05:06:05;;;;;;;18.23;10.43;;;14.90;99.90;;;;;;4960194;29;20197;-74
2021/07/20 05:08:39;;;;;;;19.23;10.60;;;14.90;99.90;;;;;;4932923;29;20217;-75
2021/07/20 05:11:05;;;;;;;17.87;10.50;;;15.00;99.90;;;;;;4941706;29;20242;-75
2021/07/20 05:13:32;;;;;;;18.93;10.00;;;15.00;99.90;;;;;;4926543;29;20193;-74
2021/07/20 05:16:01;;;;;;;19.07;10.20;;;15.00;99.90;;;;;;4925473;29;20197;-74
2021/07/20 05:18:35;;;;;;;17.17;9.80;;;15.10;99.90;;;;;;4925183;29;20224;-74
2021/07/20 05:21:05;;;;;;;18.53;9.70;;;15.10;99.90;;;;;;4942290;29;20196;-73
2021/07/20 05:23:37;;;;;;;16.87;10.17;;;15.20;99.90;;;;;;4941784;29;20241;-74
2021/07/20 05:26:02;;;;;;;15.30;9.53;;;15.40;99.90;;;;;;4927472;29;20202;-74
2021/07/20 05:30:57;;;;;;;14.37;8.37;;;15.50;99.90;;;;;;4959159;29;20209;-81
2021/07/20 05:33:23;;;;;;;17.87;9.57;;;15.60;99.90;;;;;;4943786;29;20173;-82
2021/07/20 05:35:53;;;;;;;13.73;8.03;;;15.60;99.90;;;;;;4959273;28;20559;-82
2021/07/20 05:38:19;;;;;;;13.50;7.80;;;15.70;99.90;;;;;;4944422;28;20209;-83
2021/07/20 05:40:44;;;;;;;10.83;7.10;;;15.90;99.90;;;;;;4943201;29;20599;-82
2021/07/20 05:43:12;;;;;;;13.23;7.77;;;15.90;99.90;;;;;;4943291;29;20215;-82
2021/07/20 05:45:37;;;;;;;11.00;7.33;;;15.90;99.90;;;;;;4943700;29;20302;-82
2021/07/20 05:48:03;;;;;;;12.13;7.30;;;16.00;99.90;;;;;;4942595;29;20268;-82
2021/07/20 05:50:29;;;;;;;11.97;7.27;;;16.00;99.90;;;;;;4942608;29;20212;-82
2021/07/20 05:52:56;;;;;;;11.97;7.73;;;16.10;99.90;;;;;;4943091;29;20711;-82
2021/07/20 05:55:22;;;;;;;17.43;7.80;;;16.20;99.90;;;;;;4942738;29;20329;-82
2021/07/20 05:57:48;;;;;;;10.23;7.30;;;16.60;99.90;;;;;;4958702;29;20232;-81
2021/07/20 06:00:19;;;;;;;12.23;7.43;;;16.80;99.90;;;;;;4940441;29;20269;-81
2021/07/20 06:02:45;;;;;;;11.43;7.23;;;16.80;99.90;;;;;;4940048;29;20177;-81
2021/07/20 06:05:15;;;;;;;13.53;7.80;;;16.90;99.90;;;;;;4939548;29;20193;-81
2021/07/20 06:07:41;;;;;;;12.37;7.60;;;17.00;99.90;;;;;;4939775;29;20185;-81
2021/07/20 06:10:07;;;;;;;12.93;7.37;;;17.20;99.90;;;;;;4939583;29;20252;-81
2021/07/20 06:12:34;;;;;;;14.63;7.97;;;17.40;99.90;;;;;;4939627;29;20696;-81
2021/07/20 06:15:00;;;;;;;12.47;8.10;;;17.50;99.90;;;;;;4924508;29;20716;-81
2021/07/20 06:17:26;;;;;;;14.07;8.50;;;17.60;99.90;;;;;;4939482;29;20714;-81
2021/07/20 06:19:52;;;;;;;12.80;8.10;;;17.60;99.90;;;;;;4939269;29;20193;-81
2021/07/20 06:22:21;;;;;;;11.83;7.77;;;17.90;99.90;;;;;;4939176;29;20188;-81
2021/07/20 06:24:48;;;;;;;10.97;7.33;;;18.00;99.90;;;;;;4939625;29;20598;-81
2021/07/20 06:27:15;;;;;;;11.60;7.40;;;18.00;99.90;;;;;;4939156;29;20181;-81
2021/07/20 06:29:44;;;;;;;10.90;7.50;;;18.00;99.90;;;;;;4954925;28;20213;-81
2021/07/20 06:32:09;;;;;;;11.40;7.50;;;18.20;99.90;;;;;;4939163;29;20350;-81
2021/07/20 06:34:36;;;;;;;12.70;7.50;;;18.20;99.90;;;;;;4939186;29;20324;-82
2021/07/20 06:37:02;;;;;;;10.87;6.93;;;18.40;99.90;;;;;;4939209;29;20216;-82
2021/07/20 06:39:28;;;;;;;9.80;6.50;;;18.60;99.90;;;;;;4938781;29;20208;-81
2021/07/20 06:41:56;;;;;;;13.27;7.07;;;18.80;99.90;;;;;;4939030;29;20178;-81
2021/07/20 06:44:22;;;;;;;10.53;6.80;;;18.90;99.90;;;;;;4955019;29;20174;-81
2021/07/20 06:46:48;;;;;;;9.00;6.57;;;19.00;99.90;;;;;;4954871;29;20528;-81
2021/07/20 06:49:14;;;;;;;10.37;7.20;;;19.30;99.90;;;;;;4938557;29;20229;-81
2021/07/20 06:51:40;;;;;;;10.50;6.17;;;19.50;99.90;;;;;;4938575;29;20207;-81
2021/07/20 06:54:05;;;;;;;6.87;5.70;;;19.70;99.90;;;;;;4938343;29;20601;-81
2021/07/20 06:56:35;;;;;;;6.13;4.37;;;19.80;99.90;;;;;;4938310;29;20189;-81
2021/07/20 06:59:01;;;;;;;7.07;4.23;;;19.90;99.90;;;;;;4938236;29;20217;-81
2021/07/20 07:01:29;;;;;;;5.00;3.97;;;19.80;99.90;;;;;;4938271;28;20182;-82
2021/07/20 07:04:03;;;;;;;5.63;4.27;;;19.70;99.90;;;;;;4938186;29;20256;-82
2021/07/20 07:06:31;;;;;;;6.50;4.07;;;19.90;99.90;;;;;;4938313;29;20209;-81
2021/07/20 07:08:56;;;;;;;7.20;4.90;;;19.90;99.90;;;;;;4938307;29;21001;-82
2021/07/20 07:11:22;;;;;;;6.63;4.40;;;19.90;99.90;;;;;;4950185;28;20208;-81
2021/07/20 07:13:47;;;;;;;5.30;4.00;;;20.00;99.90;;;;;;4941551;28;20659;-82
2021/07/20 07:16:13;;;;;;;5.40;3.90;;;20.10;99.90;;;;;;4941399;28;20180;-82
2021/07/20 07:18:39;;;;;;;4.23;3.10;;;20.20;99.90;;;;;;4940850;28;20727;-81
2021/07/20 07:21:05;;;;;;;6.60;3.57;;;20.40;99.90;;;;;;4957557;28;20177;-81
2021/07/20 07:23:31;;;;;;;5.40;3.50;;;20.50;99.90;;;;;;4924209;29;20201;-81
2021/07/20 07:25:59;;;;;;;6.37;3.67;;;20.30;99.90;;;;;;4921921;29;20224;-81
2021/07/20 07:28:25;;;;;;;6.43;3.77;;;20.40;99.90;;;;;;4938477;29;20186;-81
2021/07/20 07:30:50;;;;;;;5.63;3.67;;;20.50;99.90;;;;;;4921882;29;20225;-81
2021/07/20 07:33:16;;;;;;;6.93;3.43;;;20.50;99.90;;;;;;4920931;29;20205;-82
2021/07/20 07:35:42;;;;;;;4.07;3.33;;;20.60;99.90;;;;;;4939662;29;20232;-84
2021/07/20 07:38:08;;;;;;;6.87;2.87;;;21.00;99.90;;;;;;4930106;29;20221;-81
2021/07/20 07:40:34;;;;;;;4.37;3.03;;;21.30;99.90;;;;;;4933074;29;20194;-83
2021/07/20 07:43:00;;;;;;;5.00;3.00;;;21.30;99.90;;;;;;4936961;29;20182;-82
2021/07/20 07:45:26;;;;;;;3.90;2.20;;;21.10;99.90;;;;;;4935240;29;20201;-80
2021/07/20 07:47:52;;;;;;;2.80;2.30;;;21.20;99.90;;;;;;4946805;29;20653;-79
2021/07/20 07:50:20;;;;;;;6.17;2.60;;;21.20;99.90;;;;;;4933394;29;20209;-80
2021/07/20 07:52:51;;;;;;;4.10;3.00;;;21.30;99.90;;;;;;4937176;29;20209;-80
2021/07/20 07:55:21;;;;;;;4.53;2.63;;;21.30;99.90;;;;;;4935891;29;20201;-80
2021/07/20 07:57:47;;;;;;;5.57;3.10;;;21.30;99.90;;;;;;4930856;29;20236;-80
2021/07/20 08:00:14;;;;;;;3.93;3.00;;;20.70;99.90;;;;;;4939563;29;20206;-80
2021/07/20 08:02:40;;;;;;;4.50;2.90;;;20.30;99.90;;;;;;4952306;29;20220;-79
2021/07/20 08:05:07;;;;;;;4.93;2.70;;;20.30;99.90;;;;;;4936033;29;20601;-80
2021/07/20 08:07:33;;;;;;;2.77;2.17;;;20.60;99.90;;;;;;4935880;29;20193;-80
2021/07/20 08:09:59;;;;;;;6.30;4.17;;;20.70;99.90;;;;;;4952402;29;20261;-79
2021/07/20 08:12:26;;;;;;;4.33;3.17;;;20.50;99.90;;;;;;4935723;29;20210;-79
2021/07/20 08:14:52;;;;;;;5.07;3.70;;;20.50;99.90;;;;;;4935281;29;20186;-78
2021/07/20 08:17:18;;;;;;;4.73;3.50;;;20.50;99.90;;;;;;4952149;29;20261;-80
2021/07/20 08:19:44;;;;;;;6.63;3.33;;;20.90;99.90;;;;;;4935498;29;20226;-78
2021/07/20 08:22:14;;;;;;;5.77;3.13;;;21.20;99.90;;;;;;4936294;29;20185;-79
2021/07/20 08:25:08;;;;;;;5.87;3.50;;;21.30;99.90;;;;;;4936523;29;20209;-78
2021/07/20 08:27:41;;;;;;;4.17;3.60;;;21.10;99.90;;;;;;4935362;29;20229;-78
2021/07/20 08:30:07;;;;;;;5.23;3.47;;;20.90;99.90;;;;;;4951570;29;20277;-80
2021/07/20 08:32:35;;;;;;;4.10;3.10;;;20.60;99.90;;;;;;4952248;29;20604;-78
2021/07/20 08:35:04;;;;;;;4.43;3.40;;;20.40;99.90;;;;;;4952252;29;20185;-79
2021/07/20 08:37:30;;;;;;;5.27;4.03;;;20.20;99.90;;;;;;4935632;29;20210;-78
2021/07/20 08:39:57;;;;;;;5.77;3.93;;;20.10;99.90;;;;;;4951886;29;20197;-81
2021/07/20 08:43:03;;;;;;;5.33;3.77;;;20.10;99.90;;;;;;4951220;29;20182;-78
2021/07/20 08:45:31;;;;;;;6.00;3.87;;;19.80;99.90;;;;;;4949055;29;20234;-78
2021/07/20 08:48:14;;;;;;;7.53;4.50;;;19.80;99.90;;;;;;4935086;29;20841;-80
2021/07/20 08:50:51;;;;;;;7.43;4.67;;;19.80;99.90;;;;;;4935518;29;20212;-78
2021/07/20 08:53:31;;;;;;;6.63;4.00;;;19.80;99.90;;;;;;4951539;28;20182;-79
2021/07/20 08:55:56;;;;;;;5.80;3.83;;;19.90;99.90;;;;;;4951774;29;20194;-78
2021/07/20 08:59:06;;;;;;;6.00;4.67;;;19.90;99.90;;;;;;4951680;29;20242;-79
2021/07/20 09:01:55;;;;;;;6.73;4.00;;;19.80;99.90;;;;;;4933662;29;20226;-79
2021/07/20 09:04:34;;;;;;;8.57;4.50;;;19.90;99.90;;;;;;4951837;29;20171;-80
2021/07/20 09:07:02;;;;;;;7.33;4.30;;;20.10;99.90;;;;;;4950591;29;20190;-77
2021/07/20 09:09:32;;;;;;;6.73;4.40;;;20.00;99.90;;;;;;4952101;29;20289;-80
2021/07/20 09:12:20;;;;;;;6.73;4.37;;;20.00;99.90;;;;;;4952515;29;20554;-86
2021/07/20 09:14:49;;;;;;;8.33;4.40;;;19.90;99.90;;;;;;4938644;29;20190;-82
2021/07/20 09:17:23;;;;;;;6.93;4.43;;;19.90;99.90;;;;;;4958919;28;20219;-84
2021/07/20 09:20:00;;;;;;;5.40;4.37;;;19.90;99.90;;;;;;4944289;29;20240;-83
2021/07/20 09:22:55;;;;;;;7.30;4.33;;;19.70;99.90;;;;;;4943098;29;20233;-83
2021/07/20 09:25:39;;;;;;;5.50;3.90;;;19.70;99.90;;;;;;4935640;29;20215;-83
2021/07/20 09:28:17;;;;;;;8.60;4.33;;;19.90;99.90;;;;;;4948178;29;20189;-84
2021/07/20 09:30:46;;;;;;;8.23;5.40;;;19.80;99.90;;;;;;4962780;28;20267;-83
2021/07/20 09:33:24;;;;;;;6.30;4.93;;;19.80;99.90;;;;;;4947431;29;20253;-83
2021/07/20 09:36:22;;;;;;;6.27;4.63;;;19.70;99.90;;;;;;4963120;28;20182;-83
2021/07/20 09:38:58;;;;;;;7.23;4.90;;;19.70;99.90;;;;;;4953026;29;20360;-82
2021/07/20 09:41:42;;;;;;;7.37;4.83;;;19.70;99.90;;;;;;4962332;28;20181;-83
2021/07/20 09:44:21;;;;;;;7.43;4.70;;;19.80;99.90;;;;;;4963179;28;20633;-83
2021/07/20 09:47:02;;;;;;;7.03;4.67;;;19.60;99.90;;;;;;4963436;29;20185;-82
2021/07/20 09:49:51;;;;;;;8.43;4.73;;;19.30;99.90;;;;;;4965073;29;20206;-82
2021/07/20 09:52:39;;;;;;;6.60;5.13;;;19.50;99.90;;;;;;4965784;29;20634;-83
2021/07/20 09:55:26;;;;;;;6.30;4.63;;;19.50;99.90;;;;;;4964555;28;20200;-83
2021/07/20 09:57:59;;;;;;;6.60;4.20;;;19.70;99.90;;;;;;4963317;28;20241;-82
2021/07/20 10:00:32;;;;;;;8.33;5.17;;;19.80;99.90;;;;;;4947739;29;20208;-82
2021/07/20 10:03:13;;;;;;;6.47;4.73;;;20.00;99.90;;;;;;4964277;29;20182;-83
2021/07/20 10:05:57;;;;;;;6.77;4.77;;;20.00;99.90;;;;;;4964533;28;20208;-82
2021/07/20 10:08:44;;;;;;;7.83;4.90;;;20.00;99.90;;;;;;4960132;28;20217;-84
2021/07/20 10:11:30;;;;;;;7.07;4.63;;;20.20;99.90;;;;;;4950958;29;20673;-84
2021/07/20 10:14:17;;;;;;;7.43;5.07;;;20.30;99.90;;;;;;4958691;29;20185;-84
2021/07/20 10:17:13;;;;;;;6.20;4.87;;;20.30;99.90;;;;;;4958317;28;20244;-83
2021/07/20 10:19:44;;;;;;;6.80;4.77;;;20.10;99.90;;;;;;4958522;29;20661;-84
2021/07/20 10:22:12;;;;;;;6.13;4.63;;;20.10;99.90;;;;;;4958080;28;20557;-84
2021/07/20 10:24:42;;;;;;;9.23;5.83;;;20.10;99.90;;;;;;4942584;29;20188;-84
2021/07/20 10:27:14;;;;;;;7.03;4.83;;;20.30;99.90;;;;;;4942172;29;20192;-83
2021/07/20 10:30:01;;;;;;;7.57;5.17;;;20.20;99.90;;;;;;4941974;29;20228;-84
2021/07/20 10:32:38;;;;;;;8.57;5.50;;;20.10;99.90;;;;;;4958254;29;20661;-84
2021/07/20 10:35:05;;;;;;;7.10;5.10;;;20.40;99.90;;;;;;4958245;29;20176;-84
2021/07/20 10:37:33;;;;;;;6.47;4.30;;;20.40;99.90;;;;;;4941237;29;20209;-84
2021/07/20 10:40:09;;;;;;;6.73;4.63;;;20.40;99.90;;;;;;4941437;29;20202;-84
2021/07/20 10:42:49;;;;;;;7.73;5.00;;;20.30;99.90;;;;;;4941305;29;20178;-84
2021/07/20 10:45:16;;;;;;;9.50;5.03;;;20.20;99.90;;;;;;4957065;29;20181;-84
2021/07/20 10:47:57;;;;;;;8.00;5.27;;;20.20;99.90;;;;;;4941357;29;20190;-84
2021/07/20 10:50:38;;;;;;;6.77;4.93;;;20.20;99.90;;;;;;4941311;29;20202;-84
2021/07/20 10:53:22;;;;;;;6.57;5.03;;;20.30;99.90;;;;;;4941668;29;20181;-85
2021/07/20 10:55:52;;;;;;;9.27;5.50;;;20.10;99.90;;;;;;4957513;28;20170;-84
2021/07/20 10:58:48;;;;;;;7.47;5.23;;;20.10;99.90;;;;;;4957392;29;20197;-84
2021/07/20 11:01:21;;;;;;;7.27;4.70;;;20.40;99.90;;;;;;4957248;28;20629;-84
2021/07/20 11:03:53;;;;;;;7.50;4.67;;;20.80;99.90;;;;;;4956710;29;20176;-84
2021/07/20 11:06:18;;;;;;;6.73;4.53;;;20.90;99.90;;;;;;4956685;29;20616;-84
2021/07/20 11:08:45;;;;;;;7.53;4.70;;;20.80;99.90;;;;;;4940922;29;20213;-84
2021/07/20 11:11:18;;;;;;;7.27;4.53;;;20.80;99.90;;;;;;4940415;29;20220;-83
2021/07/20 11:13:45;;;;;;;6.70;5.00;;;20.70;99.90;;;;;;4940863;29;20660;-83
2021/07/20 11:16:10;;;;;;;6.90;4.93;;;20.70;99.90;;;;;;4941628;29;20590;-84
2021/07/20 11:18:40;;;;;;;6.77;4.60;;;20.60;99.90;;;;;;4940893;29;20209;-84
2021/07/20 11:21:06;;;;;;;6.90;4.40;;;20.50;99.90;;;;;;4940669;29;20745;-80
2021/07/20 11:23:34;;;;;;;7.60;4.77;;;20.40;99.90;;;;;;4957328;29;20652;-79
2021/07/20 11:26:00;;;;;;;8.93;4.50;;;20.40;99.90;;;;;;4955770;29;20228;-81
2021/07/20 11:28:26;;;;;;;9.03;4.77;;;20.50;99.90;;;;;;4956400;28;20189;-80
2021/07/20 11:30:54;;;;;;;7.63;5.07;;;20.70;99.90;;;;;;4960266;23;20234;-79
2021/07/20 11:33:41;;;;;;;7.50;5.30;;;20.80;99.90;;;;;;4937416;29;20303;-80
2021/07/20 11:36:07;;;;;;;7.13;4.57;;;20.80;99.90;;;;;;4919098;29;20198;-80
2021/07/20 11:38:34;;;;;;;7.83;5.20;;;20.80;99.90;;;;;;4914806;29;20672;-79
2021/07/20 11:41:06;;;;;;;6.33;4.63;;;20.70;99.90;;;;;;4901593;29;20182;-79
2021/07/20 11:44:10;;;;;;;8.23;4.93;;;20.90;99.90;;;;;;4917056;29;20211;-80
2021/07/20 11:46:43;;;;;;;7.90;5.13;;;20.80;99.90;;;;;;4921909;29;20249;-79
2021/07/20 11:49:20;;;;;;;6.83;4.70;;;20.80;99.90;;;;;;4918950;29;20206;-78
2021/07/20 11:51:50;;;;;;;7.77;5.30;;;20.90;99.90;;;;;;4925439;29;20258;-78
2021/07/20 11:54:34;;;;;;;8.37;5.03;;;21.20;99.90;;;;;;4941891;29;20206;-79
2021/07/20 11:57:14;;;;;;;7.20;4.73;;;21.30;99.90;;;;;;4941072;29;20216;-79
2021/07/20 12:00:20;;;;;;;7.43;4.73;;;21.20;99.90;;;;;;4940645;29;20543;-79
2021/07/20 12:03:01;;;;;;;9.20;4.70;;;21.10;99.90;;;;;;4940321;29;20198;-79
2021/07/20 12:05:29;;;;;;;7.23;4.97;;;20.90;99.90;;;;;;4940745;29;20720;-79
2021/07/20 12:08:33;;;;;;;7.53;4.90;;;20.90;99.90;;;;;;4940206;29;20178;-78
2021/07/20 12:11:06;;;;;;;6.63;4.40;;;20.70;99.90;;;;;;4940776;29;20205;-79
2021/07/20 12:13:34;;;;;;;7.03;4.60;;;20.80;99.90;;;;;;4939857;29;20278;-79
2021/07/20 12:16:00;;;;;;;7.80;4.73;;;20.80;99.90;;;;;;4939246;29;20195;-79
2021/07/20 12:18:25;;;;;;;8.27;4.83;;;21.10;99.90;;;;;;4937363;29;20221;-78
2021/07/20 12:20:51;;;;;;;6.90;4.17;;;21.40;99.90;;;;;;4920800;29;20179;-78
2021/07/20 12:23:17;;;;;;;7.50;4.70;;;21.70;99.90;;;;;;4922790;29;20180;-79
2021/07/20 12:25:42;;;;;;;5.17;4.27;;;21.90;99.90;;;;;;4938743;29;20185;-79
2021/07/20 12:28:08;;;;;;;8.37;4.53;;;21.90;99.90;;;;;;4937492;29;20194;-79
2021/07/20 12:30:34;;;;;;;6.03;4.30;;;21.80;99.90;;;;;;4937707;29;20560;-78
2021/07/20 12:33:02;;;;;;;5.13;4.20;;;21.70;99.90;;;;;;4937824;29;20703;-78
2021/07/20 12:35:29;;;;;;;6.40;3.87;;;21.50;99.90;;;;;;4922138;29;20194;-78
2021/07/20 12:38:04;;;;;;;6.87;4.27;;;21.30;99.90;;;;;;4936920;29;20289;-79
2021/07/20 12:40:31;;;;;;;6.93;4.43;;;21.40;99.90;;;;;;4935743;29;20261;-79
2021/07/20 12:43:15;;;;;;;7.43;4.60;;;21.20;99.90;;;;;;4918523;29;20179;-78
2021/07/20 12:45:45;;;;;;;6.10;4.40;;;21.00;99.90;;;;;;4935167;29;20182;-78
2021/07/20 12:48:27;;;;;;;6.67;4.13;;;20.90;99.90;;;;;;4920119;29;20213;-78
2021/07/20 12:50:53;;;;;;;6.20;4.00;;;20.80;99.90;;;;;;4904324;29;20249;-78
2021/07/20 12:53:20;;;;;;;6.10;4.37;;;20.90;99.90;;;;;;4920466;29;20174;-78
2021/07/20 12:55:46;;;;;;;6.57;4.10;;;20.90;99.90;;;;;;4920013;29;20607;-78
2021/07/20 12:58:13;;;;;;;6.27;3.93;;;21.00;99.90;;;;;;4935354;29;20671;-78